• Join FlightAware (Why Join?)
  • Login
  • US Flag 
03:59AM EST


 

Airport Tracker/Info


-or-


 

Live Flight TrackerFlight Track Log ✈ EJA646 ✈ 27-Apr-2013 ✈ KFHB - KORH

Flight Track Log - Related Links

Times and Time Zones

All times are in EDT time to prevent confusion due to time zone crossing. See the EJA646 flight status page for this flight to view local times or setup timezone preferences in your user account.

Time Position Orientation Groundspeed Altitude Reporting Facility
EDT Latitude Longitude Course Direction KTS MPH feet Rate Location/Type
10:18AM 30.6133 -81.4492 23° Northeast 147 169 500  Level Jacksonville Center
10:20AM 30.6631 -81.4169 29° Northeast 218 251 1,900 1,020 Climbing Jacksonville Center
10:21AM 30.7214 -81.3992 15° North 207 238 3,000 2,340 Climbing Jacksonville Center
10:22AM 30.7750 -81.3572 34° Northeast 207 238 6,600 3,120 Climbing Jacksonville Center
10:23AM 30.8331 -81.3128 33° Northeast 229 264 9,300 2,400 Climbing Jacksonville Center
10:24AM 31.1961 -81.1353 23° Northeast  Level FlightAware Approximate
10:24AM 30.9078 -81.2897 15° North 251 289 11,400  Level Jacksonville Center
10:25AM 30.9933 -81.2808 North 286 329 13,400 1,980 Climbing Jacksonville Center
10:26AM 31.0811 -81.2769 North 297 342 15,400 1,980 Climbing Jacksonville Center
10:27AM 31.1686 -81.2706 North 303 349 17,400 1,800 Climbing Jacksonville Center
10:28AM 31.2561 -81.2619 North 309 356 19,100 1,800 Climbing Jacksonville Center
10:29AM 31.3564 -81.2553 North 309 356 21,100 1,740 Climbing Jacksonville Center
10:30AM 31.4439 -81.2489 North 330 380 22,600 1,500 Climbing Jacksonville Center
10:31AM 31.5525 -81.2397 North 340 391 24,200 1,500 Climbing Jacksonville Center
10:32AM 31.6311 -81.1869 30° Northeast 352 405 25,600 1,500 Climbing Jacksonville Center
10:33AM 31.7239 -81.1047 37° Northeast 378 435 27,300 1,500 Climbing Jacksonville Center
10:34AM 31.8083 -81.0272 38° Northeast 384 442 28,700 1,260 Climbing Jacksonville Center
10:35AM 31.8975 -80.9839 22° Northeast 384 442 29,900 1,200 Climbing Jacksonville Center
10:36AM 32.0094 -80.9325 21° North 384 442 31,200 1,200 Climbing Jacksonville Center
10:37AM 32.1028 -80.8889 22° Northeast 389 448 32,400 1,200 Climbing Jacksonville Center
10:38AM 32.2036 -80.8056 35° Northeast 389 448 33,700 1,140 Climbing Jacksonville Center
10:39AM 32.2753 -80.7231 44° Northeast 398 458 34,700 1,080 Climbing Jacksonville Center
10:40AM 32.3594 -80.6325 42° Northeast 398 458 35,900 1,140 Climbing Jacksonville Center
10:41AM 32.4369 -80.5444 44° Northeast 398 458 37,000 1,020 Climbing Jacksonville Center
10:42AM 32.5253 -80.4656 37° Northeast 388 447 38,000 960 Climbing Jacksonville Center
10:43AM 32.6181 -80.4017 30° Northeast 388 447 39,000 960 Climbing Jacksonville Center
10:44AM 32.7019 -80.3203 39° Northeast 388 447 40,000 900 Climbing Jacksonville Center
10:45AM 32.7836 -80.2364 41° Northeast 388 447 40,900 480 Climbing Jacksonville Center
10:46AM 32.8653 -80.1500 42° Northeast 388 447 41,000  Climbing Jacksonville Center
10:47AM 32.9633 -80.0478 41° Northeast 403 464 41,000  Level Jacksonville Center
10:48AM 33.0511 -79.9608 40° Northeast 409 471 41,000  Level Jacksonville Center
10:49AM 33.1386 -79.8711 41° Northeast 409 471 41,000  Level Jacksonville Center
10:50AM 33.2264 -79.7836 40° Northeast 409 471 41,000  Level Jacksonville Center
10:51AM 33.3117 -79.6961 41° Northeast 409 471 41,000  Level Jacksonville Center
10:52AM 33.3972 -79.6061 41° Northeast 404 465 41,000  Level Jacksonville Center
10:53AM 33.4844 -79.5158 41° Northeast 404 465 41,000  Level Jacksonville Center
10:54AM 33.5697 -79.4253 41° Northeast 404 465 41,000  Level Jacksonville Center
10:55AM 33.6569 -79.3344 41° Northeast 404 465 41,000  Level Jacksonville Center
10:56AM 33.7297 -79.2567 42° Northeast 404 465 41,000  Level Jacksonville Center
10:57AM 33.8169 -79.1681 40° Northeast 402 463 41,000  Level Jacksonville Center
10:59AM 33.9794 -79.0000 41° Northeast 409 471 41,000  Level Washington Center
11:00AM 34.0653 -78.9083 41° Northeast 404 465 41,000  Level Washington Center
11:01AM 34.1492 -78.8164 42° Northeast 404 465 41,000  Level Washington Center
11:02AM 34.2372 -78.7244 41° Northeast 399 459 41,000  Level Washington Center
11:03AM 34.3250 -78.6347 40° Northeast 399 459 41,000  Level Washington Center
11:04AM 34.4150 -78.5450 39° Northeast 399 459 41,000  Level Washington Center
11:05AM 34.5006 -78.4547 41° Northeast 404 465 41,000  Level Washington Center
11:06AM 34.5925 -78.3647 39° Northeast 417 480 41,000  Level Washington Center
11:07AM 34.6800 -78.2742 40° Northeast 417 480 41,000  Level Washington Center
11:08AM 34.7697 -78.1836 40° Northeast 412 474 41,000  Level Washington Center
11:09AM 34.8467 -78.0975 43° Northeast 412 474 41,000  Level Washington Center
11:10AM 34.9361 -78.0064 40° Northeast 417 480 41,000  Level Washington Center
11:11AM 35.0236 -77.9153 40° Northeast 417 480 41,000  Level Washington Center
11:12AM 35.1128 -77.8239 40° Northeast 412 474 41,000  Level Washington Center
11:13AM 35.2022 -77.7322 40° Northeast 412 474 41,000  Level Washington Center
11:14AM 35.2892 -77.6431 40° Northeast 412 474 41,000  Level Washington Center
11:15AM 35.3783 -77.5511 40° Northeast 412 474 41,000  Level Washington Center
11:16AM 35.4736 -77.4692 35° Northeast 412 474 41,000  Level Washington Center
11:17AM 35.5689 -77.3872 35° Northeast 412 474 41,000  Level Washington Center
11:18AM 35.6639 -77.3050 35° Northeast 412 474 41,000  Level Washington Center
11:19AM 35.7547 -77.2200 37° Northeast 412 474 41,000  Level Washington Center
11:20AM 35.8497 -77.1372 35° Northeast 412 474 41,000  Level Washington Center
11:21AM 35.9469 -77.0494 36° Northeast 407 468 41,000  Level Washington Center
11:22AM 36.0439 -76.9639 36° Northeast 412 474 41,000  Level Washington Center
11:23AM 36.1408 -76.8781 36° Northeast 417 480 41,000  Level Washington Center
11:24AM 36.2378 -76.7919 36° Northeast 417 480 41,000  Level Washington Center
11:25AM 36.3325 -76.7058 36° Northeast 417 480 41,000  Level Washington Center
11:26AM 36.4311 -76.6194 35° Northeast 422 486 41,000  Level Washington Center
11:27AM 36.5278 -76.5353 35° Northeast 427 491 41,000  Level Washington Center
11:28AM 36.6244 -76.4461 37° Northeast 427 491 41,000  Level Washington Center
11:29AM 36.6981 -76.3794 36° Northeast 427 491 41,000  Level Washington Center
11:30AM 36.7967 -76.2844 38° Northeast 422 486 41,000  Level Washington Center
11:31AM 36.8889 -76.2022 35° Northeast 412 474 41,000  Level Washington Center
11:32AM 36.9936 -76.1250 30° Northeast 406 467 41,000  Level Washington Center
11:33AM 37.0958 -76.0969 12° North 398 458 41,000  Level Washington Center
11:34AM 37.1961 -76.0428 23° Northeast 393 452 41,000  Level Washington Center
11:35AM 37.2964 -75.9886 23° Northeast 388 447 41,000  Level Washington Center
11:36AM 37.3969 -75.9342 23° Northeast 388 447 41,000  Level Washington Center
11:37AM 37.4969 -75.8825 22° Northeast 388 447 41,000  Level Washington Center
11:38AM 37.5953 -75.8197 27° Northeast 393 452 41,000  Level Washington Center
11:39AM 37.6933 -75.7439 31° Northeast 398 458 41,000  Level Washington Center
11:40AM 37.7914 -75.6706 31° Northeast 403 464 41,000  Level Washington Center
11:41AM 37.8875 -75.5969 31° Northeast 403 464 41,000  Level Washington Center
11:42AM 37.9875 -75.5258 29° Northeast 403 464 41,000  Level Washington Center
11:43AM 38.0814 -75.4442 34° Northeast 403 464 41,000  Level Washington Center
11:44AM 38.1708 -75.3542 38° Northeast 403 464 41,000  Level Washington Center
11:45AM 38.2561 -75.2586 41° Northeast 408 470 41,000  Level Washington Center
11:46AM 38.3411 -75.1656 41° Northeast 408 470 41,000  Level Washington Center
11:47AM 38.4325 -75.0722 39° Northeast 408 470 41,000  Level Washington Center
11:48AM 38.5197 -74.9786 40° Northeast 408 470 41,000  Level Washington Center
11:49AM 38.6089 -74.8850 39° Northeast 403 464 41,000  Level Washington Center
11:50AM 38.6978 -74.7911 39° Northeast 403 464 41,000  Level Washington Center
11:51AM 38.7847 -74.6969 40° Northeast 403 464 41,000  Level Washington Center
11:52AM 38.8736 -74.6025 40° Northeast 403 464 41,000  Level Washington Center
11:53AM 38.9625 -74.5050 40° Northeast 403 464 41,000  Level Washington Center
11:54AM 39.0594 -74.4019 40° Northeast 410 472 41,000  Level Washington Center
11:56AM 39.2325 -74.2144 40° Northeast 410 472 41,000  Level Washington Center
11:57AM 39.3208 -74.1161 41° Northeast 405 466 41,000  Level Washington Center
11:58AM 39.4772 -73.9450 40° Northeast 408 470 41,000  Level Boston Center
11:59AM 39.5469 -73.8686 40° Northeast 408 470 41,000  Level Boston Center
12:00PM 39.6667 -73.7903 27° Northeast 403 464 41,000  Level Boston Center
12:01PM 39.7694 -73.7331 23° Northeast 396 456 41,000  Level Boston Center
12:02PM 39.8703 -73.6700 26° Northeast 396 456 41,000 -300 Level Boston Center
12:03PM 39.9542 -73.5986 33° Northeast 396 456 40,500 -960 Descending Boston Center
12:05PM 40.0489 -73.5081 36° Northeast 409 471 39,000 -1,500 Descending Boston Center
12:06PM 40.1583 -73.3983 37° Northeast 414 476 37,200 -1,740 Descending Boston Center
12:07PM 40.2550 -73.2967 39° Northeast 414 476 35,600 -1,680 Descending Boston Center
12:08PM 40.3472 -73.2106 35° Northeast 408 470 33,900 -1,860 Descending Boston Center
12:09PM 40.4372 -73.1217 37° Northeast 403 464 31,900 -2,040 Descending Boston Center
12:10PM 40.5253 -73.0353 37° Northeast 403 464 29,900 -1,500 Descending Boston Center
12:11PM 40.6175 -72.9458 36° Northeast 403 464 29,000 -1,320 Descending Boston Center
12:12PM 40.7053 -72.8536 39° Northeast 403 464 27,300 -1,680 Descending Boston Center
12:13PM 40.7931 -72.7717 35° Northeast 416 479 25,700 -1,620 Descending Boston Center
12:14PM 40.8872 -72.6817 36° Northeast 421 484 24,100 -1,560 Descending Boston Center
12:15PM 40.9769 -72.5914 37° Northeast 414 476 22,600 -1,500 Descending Boston Center
12:16PM 41.0625 -72.5006 39° Northeast 402 463 21,100 -1,620 Descending Boston Center
12:17PM 41.1478 -72.4181 36° Northeast 389 448 19,400 -2,280 Descending Boston Center
12:18PM 41.2417 -72.3297 35° Northeast 384 442 16,600 -2,340 Descending Boston Center
12:19PM 41.3333 -72.2964 15° North 354 407 14,800 -1,620 Descending Boston Center
12:20PM 41.4311 -72.2628 14° North 354 407 13,400 -1,500 Descending Boston Center
12:20PM 41.5042 -72.2406 13° North 344 396 12,100 -1,560 Descending Boston Center
12:21PM 41.5686 -72.2181 15° North 338 389 11,100 -840 Descending Boston Center
12:22PM 41.6125 -72.1986 18° North 339 390 11,100 -120 Level Boston Center
12:22PM 41.6581 -72.1872 11° North 338 389 11,000  Descending Boston Center
12:23PM 41.6936 -72.1731 17° North 333 383 11,100  Climbing Boston Center
12:23PM 41.7497 -72.1592 10° North 336 387 11,000  Descending Boston Center
12:24PM 41.7936 -72.1394 19° North 333 383 11,100  Climbing Boston Center
12:24PM 41.8372 -72.1253 14° North 334 384 11,000 -540 Descending Boston Center
12:25PM 41.8769 -72.1111 15° North 323 372 10,600 -1,200 Descending Boston Center
12:25PM 41.9183 -72.0997 12° North 268 308 9,800 -1,140 Descending Boston Center
12:26PM 41.9392 -72.0911 17° North 276 318 9,500 -1,800 Descending Boston Center
12:26PM 41.9872 -72.0658 21° North 257 296 8,000 -2,100 Descending Boston Center
12:27PM 42.0036 -72.0378 52° Northeast 244 281 7,400 -2,280 Descending Boston Center
12:27PM 42.0286 -71.9903 55° Northeast 266 306 5,700 -2,340 Descending Boston Center
12:28PM 42.0431 -71.9647 53° Northeast 244 281 5,100 -2,100 Descending Boston Center
12:28PM 42.0867 -71.9561 North 244 281 3,600 -2,040 Descending Boston Center
12:29PM 42.1119 -71.9672 342° North 210 242 3,100 -600 Descending Boston Center
12:29PM 42.1494 -71.9808 345° North 230 265 3,000 -120 Descending Boston Center
12:30PM 42.1639 -71.9892 337° Northwest 205 236 3,000  Level Boston Center
12:30PM 42.1994 -71.9944 354° North 167 192 3,000 -240 Level Boston Center
12:31PM 42.2119 -71.9889 18° North 173 199 2,800 -540 Descending Boston Center
12:31PM 42.2431 -71.9803 12° North 164 189 2,500 -300 Descending Boston Center
12:32PM 42.2514 -71.9858 334° Northwest 158 182 2,500 -540 Level Boston Center
12:32PM 42.2681 -71.9406 64° Northeast 160 184 2,000 -300 Descending Boston Center
12:33PM 42.2908 -71.9461 350° North 147 169 2,200 -840 Climbing Boston Center
12:33PM 42.2656 -71.8875 120° Southeast 148 170 1,200 -1,440 Descending Boston Center
12:37PM 42.2667 -71.8667 90° East  Level FlightAware Approximate
12:44PM 42.2671 -71.8756 90° East  Level Estimated
12:45PM 42.2667 -71.8667 90° East  Level FlightAware Approximate
12:46PM 42.2671 -71.8756 90° East  Level Estimated
12:47PM 42.2667 -71.8667 90° East  Level FlightAware Approximate
12:48PM 42.2671 -71.8756 90° East  Level Estimated
12:49PM 42.2667 -71.8667 90° East  Level FlightAware Approximate